Besuchen Sie unsere anderen Wetter Stationen:

Template documentation
and downloads

And another site



METAR-Meldungen aus der Umgebung


Warning: A non-numeric value encountered in /is/htdocs/wp10906056_0YHW7Q9XB7/www/weather28/metar/metarDisplay.php on line 166
   
EHVK - Volkel Rnlafb, Netherlands
Entfernung von der Station bis: SW 18 km
Aktualisierung: 14-10-2019 17:55
Bewölkt  
Bewölkt  
   Wind: Osten 13 km/h
Wind: Osten 13 km/h
Temperatur: 20°C
Taupunkt: 15°C
Luftfeuchte: 73%
Luftdruck: 1006 hPa
Bewölkt: Bewölkt
Sichtbarkeit: More than 10 km
Bewölkung: Bewölkt 7315.2 m
EHVK 141555Z AUTO 09007KT 070V140 9999 OVC240 20/15 Q1006 BLU
EDLV - Niederrhein, Germany
Entfernung von der Station bis: SO 25 km
Aktualisierung: 14-10-2019 17:50
Klar  
Klar  
   Wind: OSO 7.4 km/h
Wind: OSO 7.4 km/h
Temperatur: 21°C
Taupunkt: 16°C
Luftfeuchte: 73%
Luftdruck: 1007 hPa
Sichtbarkeit: More than 10 km
Bewölkung: Klar
EDLV 141550Z 11004KT 080V140 CAVOK 21/16 Q1007
EHDL - Deelen Rnlafb, Netherlands
Entfernung von der Station bis: N 35 km
Aktualisierung: 14-10-2019 17:55
Bewölkt  
Bewölkt  
   Wind: Osten 14.8 km/h
Wind: Osten 14.8 km/h
Temperatur: 18°C
Taupunkt: 15°C
Luftfeuchte: 83%
Luftdruck: 1007 hPa
Bewölkt: Bewölkt
Sichtbarkeit: More than 10 km
Bewölkung: leicht bewölkt 3048 m,
Bewölkt 6400.8 m
EHDL 141555Z AUTO 10008KT 020V180 9999 FEW100 OVC210 18/15 Q1007 BLU
EHEH - Eindhoven Rnlafb, Netherlands
Entfernung von der Station bis: SW 48 km
Aktualisierung: 14-10-2019 17:55
Bewölkt  
Bewölkt  
   Wind: OSO 13 km/h
Wind: OSO 13 km/h
Temperatur: 21°C
Taupunkt: 15°C
Luftfeuchte: 69%
Luftdruck: 1006 hPa
Bewölkt: Bewölkt
Sichtbarkeit: More than 10 km
Bewölkung: Bewölkt 7620 m
EHEH 141555Z AUTO 12007KT 070V180 9999 OVC250 21/15 Q1006 BLU 12008KT CAVOK
EHGR - Gilze-Rijen Rnla, Netherlands
Entfernung von der Station bis: WSW 70 km
Aktualisierung: 14-10-2019 17:55
Bewölkt  
Bewölkt  
   Wind: SO 11.1 km/h
Wind: SO 11.1 km/h
Temperatur: 20°C
Taupunkt: 16°C
Luftfeuchte: 78%
Luftdruck: 1006 hPa
Bewölkt: Bewölkt
Sichtbarkeit: More than 10 km
Bewölkung: Bewölkt 6400.8 m
EHGR 141555Z AUTO 13006KT 100V160 9999 OVC210 20/16 Q1006 BLU
EBBL - Kleine-Brogel(Ba, Belgium
Entfernung von der Station bis: SSW 71 km
Aktualisierung: 14-10-2019 17:55
Stark bewölkt  
Stark bewölkt  
   Wind: SSO 5.6 km/h
Wind: SSO 5.6 km/h
Temperatur: 20°C
Taupunkt: 16°C
Luftfeuchte: 78%
Luftdruck: 1006 hPa
Bewölkt: Stark bewölkt
Sichtbarkeit: More than 10 km
Bewölkung: Stark bewölkt 9144 m
EBBL 141555Z 15003KT 9999 BKN300 20/16 Q1006 BLU BLU

Script entwickelt von  Saratoga-weather.org Angepasst für das Template von  Weerstation Leuven

Sie finden unser Wetter-Infos auch auf:

netzwerkwettercom

European Weather Network

WeatherCloud

Weather Underground

AWEKAS

Citizen Weather Observer Program (CWOP)

HAMweather, WeatherForYou, PWS Weather

Von uns verwendete Ausrüstung:

Wetterstation
Davis VP2

Davis VP2